Time;durP1;ratioP1;P1;durP2;ratioP2;P2;SDS_P1;SDS_P2;PMS_P1;PMS_P2;Temp;Humidity;BMP_temperature;BMP_pressure;BME280_temperature;BME280_humidity;BME280_pressure;Samples;Min_cycle;Max_cycle;Signal;HPM_P1;HPM_P2
2024/01/23 00:01:35;;;;;;;41.80;24.20;;;;;;;6.83;100.00;99772.44;681664;1262;139125;-82
2024/01/23 00:16:40;;;;;;;40.00;21.30;;;;;;;6.74;100.00;99781.21;681359;1262;139140;-82
2024/01/23 00:31:44;;;;;;;51.30;25.60;;;;;;;6.73;100.00;99781.23;681390;1267;140197;-82
2024/01/23 00:46:48;;;;;;;49.30;24.50;;;;;;;6.76;100.00;99787.63;681332;1265;138969;-83
2024/01/23 01:01:53;;;;;;;69.60;28.70;;;;;;;6.74;100.00;99793.34;681367;1262;139716;-83
2024/01/23 01:16:56;;;;;;;39.90;20.00;;;;;;;6.54;100.00;99791.91;681424;1264;139081;-82
2024/01/23 01:32:00;;;;;;;41.00;19.50;;;;;;;6.42;100.00;99788.38;681399;1265;139774;-85
2024/01/23 01:47:03;;;;;;;128.00;49.40;;;;;;;6.29;100.00;99801.56;681383;1262;139475;-83
2024/01/23 02:02:08;;;;;;;64.70;29.50;;;;;;;6.22;100.00;99816.84;681291;1265;139695;-83
2024/01/23 02:17:12;;;;;;;23.30;10.50;;;;;;;6.14;100.00;99825.81;681411;1266;139054;-83
2024/01/23 02:32:15;;;;;;;24.00;12.30;;;;;;;6.04;100.00;99832.79;681306;1266;139511;-83
2024/01/23 02:47:20;;;;;;;21.30;9.50;;;;;;;5.92;100.00;99836.61;681409;1264;139903;-84
2024/01/23 03:02:25;;;;;;;25.30;10.20;;;;;;;5.85;100.00;99853.13;681480;1262;139415;-84
2024/01/23 03:17:29;;;;;;;20.50;11.60;;;;;;;5.73;100.00;99853.86;681470;1263;139860;-84
2024/01/23 03:32:33;;;;;;;21.80;10.40;;;;;;;5.62;100.00;99878.73;681487;1264;139337;-83
2024/01/23 03:47:37;;;;;;;22.70;8.00;;;;;;;5.54;100.00;99893.58;681630;1264;139418;-84
2024/01/23 04:02:41;;;;;;;22.40;8.90;;;;;;;5.42;100.00;99901.85;681371;1266;139456;-83
2024/01/23 04:17:46;;;;;;;16.20;8.40;;;;;;;5.43;100.00;99901.95;681684;1265;139666;-84
2024/01/23 04:32:50;;;;;;;20.00;9.70;;;;;;;5.35;100.00;99909.88;681739;1263;139167;-84
2024/01/23 04:47:53;;;;;;;22.90;10.00;;;;;;;5.29;100.00;99922.63;681589;1263;140441;-83
2024/01/23 05:02:57;;;;;;;18.40;10.10;;;;;;;5.31;100.00;99936.52;681538;1265;139786;-83
2024/01/23 05:18:06;;;;;;;19.50;9.20;;;;;;;5.20;100.00;99935.70;681552;1264;140064;-84
2024/01/23 05:33:12;;;;;;;22.20;9.30;;;;;;;5.15;100.00;99948.36;681689;1266;139117;-84
2024/01/23 05:48:15;;;;;;;21.40;11.00;;;;;;;5.11;100.00;99958.02;681338;1265;139381;-84
2024/01/23 06:03:20;;;;;;;26.40;13.10;;;;;;;5.11;100.00;99975.17;681468;1265;139919;-84
2024/01/23 06:18:25;;;;;;;33.50;12.60;;;;;;;5.24;100.00;99996.31;681425;1266;139379;-83
2024/01/23 06:33:31;;;;;;;40.30;20.30;;;;;;;5.43;100.00;100018.21;681663;1263;139049;-83
2024/01/23 06:48:37;;;;;;;105.50;36.60;;;;;;;5.56;100.00;100038.45;681374;1277;140739;-84
2024/01/23 07:03:40;;;;;;;94.30;42.10;;;;;;;5.67;100.00;100057.62;681700;1265;139845;-84
2024/01/23 07:18:44;;;;;;;43.90;20.50;;;;;;;5.69;100.00;100068.27;681519;1265;140130;-84
2024/01/23 07:33:48;;;;;;;56.00;21.40;;;;;;;5.85;100.00;100087.77;681532;1262;140615;-86
2024/01/23 07:48:54;;;;;;;28.80;11.00;;;;;;;5.99;100.00;100090.45;681485;1267;139324;-84
2024/01/23 08:03:59;;;;;;;60.10;22.70;;;;;;;5.99;100.00;100111.95;681540;1265;140088;-84
2024/01/23 08:19:03;;;;;;;47.20;20.50;;;;;;;6.01;100.00;100114.56;681456;1265;140772;-84
2024/01/23 08:34:08;;;;;;;24.70;9.50;;;;;;;6.20;100.00;100126.98;681684;1267;140197;-83
2024/01/23 08:49:13;;;;;;;18.70;9.50;;;;;;;6.33;100.00;100154.51;681559;1266;139491;-83
2024/01/23 09:04:17;;;;;;;34.40;11.20;;;;;;;6.38;100.00;100182.13;681625;1265;138984;-83
2024/01/23 09:19:22;;;;;;;26.60;8.20;;;;;;;6.24;100.00;100192.70;681528;1266;139246;-82
2024/01/23 09:34:27;;;;;;;22.00;10.50;;;;;;;6.72;99.61;100199.36;681595;1265;139518;-82
2024/01/23 09:49:34;;;;;;;26.80;12.30;;;;;;;6.74;99.05;100209.94;681527;1276;140362;-83
2024/01/23 10:04:43;;;;;;;65.60;25.70;;;;;;;6.97;97.70;100206.90;681634;1266;139311;-82
2024/01/23 10:19:47;;;;;;;34.60;16.90;;;;;;;8.59;96.85;100193.16;681258;1278;140040;-83
2024/01/23 10:34:58;;;;;;;18.80;8.90;;;;;;;10.02;88.82;100183.31;681464;1262;142367;-84
2024/01/23 10:50:03;;;;;;;13.00;6.20;;;;;;;10.19;84.20;100180.98;681640;1266;139637;-83
2024/01/23 11:05:09;;;;;;;17.60;6.70;;;;;;;9.06;81.62;100194.27;681701;1265;139386;-84
2024/01/23 11:20:16;;;;;;;23.90;8.00;;;;;;;8.35;82.73;100186.73;681488;1265;139306;-83
2024/01/23 11:35:20;;;;;;;16.80;5.80;;;;;;;9.10;82.61;100188.33;681761;1265;140049;-83
2024/01/23 11:50:27;;;;;;;16.00;6.90;;;;;;;9.26;79.34;100194.72;681569;1264;140273;-84
2024/01/23 12:05:31;;;;;;;29.40;10.50;;;;;;;8.94;78.75;100201.20;681777;1266;139808;-84
2024/01/23 12:20:36;;;;;;;23.00;11.50;;;;;;;8.40;80.37;100204.80;681509;1265;139163;-83
2024/01/23 12:35:48;;;;;;;43.40;15.10;;;;;;;8.04;81.11;100214.64;681652;1265;139259;-85
2024/01/23 12:50:58;;;;;;;11.50;6.30;;;;;;;7.90;81.65;100222.98;681611;1266;139577;-84
2024/01/23 13:06:03;;;;;;;31.70;12.20;;;;;;;7.83;82.28;100224.91;681981;1265;139162;-84
2024/01/23 13:21:09;;;;;;;29.20;12.00;;;;;;;7.85;82.78;100229.17;682103;1269;138066;-84
2024/01/23 13:36:19;;;;;;;22.30;8.70;;;;;;;7.65;84.76;100228.77;681960;1261;139963;-86
2024/01/23 13:51:25;;;;;;;23.40;9.30;;;;;;;7.30;88.19;100251.76;681922;1261;139142;-85
2024/01/23 14:06:32;;;;;;;30.30;11.80;;;;;;;6.98;91.91;100277.55;682180;1266;139631;-85
2024/01/23 14:21:37;;;;;;;29.60;10.20;;;;;;;6.85;94.88;100289.61;682380;1264;139000;-84
2024/01/23 14:36:43;;;;;;;23.20;10.10;;;;;;;6.84;95.34;100305.91;682136;1264;139461;-85
2024/01/23 14:51:50;;;;;;;21.90;8.20;;;;;;;6.64;97.32;100327.13;682138;1261;138686;-84
2024/01/23 15:06:56;;;;;;;33.70;12.30;;;;;;;6.58;97.78;100343.15;682084;1267;139201;-81
2024/01/23 15:22:03;;;;;;;17.20;6.40;;;;;;;6.57;97.70;100373.45;682103;1266;139062;-84
2024/01/23 15:37:10;;;;;;;17.20;7.90;;;;;;;6.68;98.32;100392.36;681899;1266;139565;-84
2024/01/23 15:52:14;;;;;;;21.70;8.60;;;;;;;6.71;98.16;100417.88;681786;1264;139640;-83
2024/01/23 16:07:21;;;;;;;14.50;5.60;;;;;;;6.64;98.47;100440.44;681786;1263;139454;-84
2024/01/23 16:22:27;;;;;;;12.00;5.90;;;;;;;6.75;98.60;100464.20;681866;1261;139521;-85
2024/01/23 16:37:35;;;;;;;13.80;5.80;;;;;;;6.72;99.05;100480.39;681572;1265;139287;-84
2024/01/23 16:52:38;;;;;;;;;;;;;;;6.63;99.99;100508.13;681987;1263;139704;-83
2024/01/23 17:07:43;;;;;;;22.80;7.80;;;;;;;6.61;99.90;100526.28;681674;1266;126928;-84
2024/01/23 17:22:49;;;;;;;52.50;23.30;;;;;;;6.55;100.00;100536.95;681861;1265;139221;-82
2024/01/23 17:37:54;;;;;;;24.60;10.00;;;;;;;6.57;100.00;100572.44;681803;1263;139828;-84
2024/01/23 17:53:00;;;;;;;21.30;6.80;;;;;;;6.52;100.00;100607.03;682203;1263;140068;-82
2024/01/23 18:08:05;;;;;;;20.50;7.20;;;;;;;6.58;100.00;100621.75;681873;1264;139739;-84
2024/01/23 18:23:10;;;;;;;19.60;6.00;;;;;;;6.66;100.00;100637.76;682041;1265;139702;-86
2024/01/23 18:38:15;;;;;;;28.70;7.70;;;;;;;6.73;100.00;100648.78;681770;1265;140007;-84
2024/01/23 18:53:20;;;;;;;32.10;11.30;;;;;;;6.66;100.00;100672.31;682164;1262;139636;-83
2024/01/23 19:08:25;;;;;;;27.20;9.50;;;;;;;6.56;100.00;100673.28;681823;1265;139452;-83
2024/01/23 19:23:29;;;;;;;28.10;9.10;;;;;;;6.63;100.00;100667.99;681688;1260;162825;-83
2024/01/23 19:38:33;;;;;;;42.40;12.60;;;;;;;6.60;100.00;100674.45;681240;1266;140541;-83
2024/01/23 19:53:37;;;;;;;28.90;9.90;;;;;;;6.52;100.00;100698.08;681901;1262;139366;-83
2024/01/23 20:08:41;;;;;;;22.70;7.50;;;;;;;6.56;100.00;100709.27;681744;1265;139628;-84
2024/01/23 20:23:47;;;;;;;36.20;11.70;;;;;;;6.53;100.00;100726.86;681948;1265;139660;-84
2024/01/23 20:38:53;;;;;;;33.10;8.90;;;;;;;6.50;100.00;100731.43;681913;1265;139805;-86
2024/01/23 20:53:57;;;;;;;32.50;10.00;;;;;;;6.53;100.00;100726.15;681712;1265;139685;-85
2024/01/23 21:09:02;;;;;;;28.90;7.80;;;;;;;6.43;100.00;100720.37;681608;1265;140031;-86
2024/01/23 21:24:07;;;;;;;32.20;7.10;;;;;;;6.45;100.00;100721.25;681731;1265;139589;-87
2024/01/23 21:39:13;;;;;;;45.00;12.70;;;;;;;6.42;100.00;100713.11;681896;1265;140240;-87
2024/01/23 21:54:20;;;;;;;29.80;7.90;;;;;;;6.28;99.94;100707.25;681716;1269;139191;-87
2024/01/23 22:09:25;;;;;;;43.40;13.20;;;;;;;6.08;99.61;100694.58;681969;1265;139554;-84
2024/01/23 22:24:30;;;;;;;41.30;13.30;;;;;;;5.99;99.71;100692.90;681830;1266;139178;-83
2024/01/23 22:39:33;;;;;;;30.40;10.70;;;;;;;5.94;99.60;100666.80;681815;1266;139660;-85
2024/01/23 22:54:38;;;;;;;34.50;8.40;;;;;;;5.92;98.71;100654.40;681967;1266;139650;-85
2024/01/23 23:09:41;;;;;;;22.10;7.30;;;;;;;5.94;97.95;100640.56;682080;1263;139967;-86
2024/01/23 23:24:45;;;;;;;21.10;6.70;;;;;;;5.95;96.82;100629.77;681843;1263;140203;-82
2024/01/23 23:39:49;;;;;;;21.40;6.30;;;;;;;5.98;95.91;100623.82;681712;1277;138932;-83
2024/01/23 23:54:53;;;;;;;21.00;6.10;;;;;;;5.99;95.41;100619.28;681945;1262;139138;-88
